sensor_id;sensor_type;location;lat;lon;timestamp;pressure;altitude;pressure_sealevel;temperature;humidity
24390;BME280;12510;56.468;-3.004;2023-10-31T00:01:53;-12981.59;;;-148.32;100.00
24390;BME280;12510;56.468;-3.004;2023-10-31T00:04:21;-12981.59;;;-148.32;100.00
24390;BME280;12510;56.468;-3.004;2023-10-31T00:06:47;-12981.59;;;-148.32;100.00
24390;BME280;12510;56.468;-3.004;2023-10-31T00:09:14;-12981.59;;;-148.32;100.00
24390;BME280;12510;56.468;-3.004;2023-10-31T00:11:43;-12981.59;;;-148.32;100.00
24390;BME280;12510;56.468;-3.004;2023-10-31T00:14:10;-12981.59;;;-148.32;100.00
24390;BME280;12510;56.468;-3.004;2023-10-31T00:16:36;-12981.59;;;-148.32;100.00
24390;BME280;12510;56.468;-3.004;2023-10-31T00:19:02;-12981.59;;;-148.32;100.00
24390;BME280;12510;56.468;-3.004;2023-10-31T00:21:29;-12981.59;;;-148.32;100.00
24390;BME280;12510;56.468;-3.004;2023-10-31T00:23:55;-12981.59;;;-148.32;100.00
24390;BME280;12510;56.468;-3.004;2023-10-31T00:26:21;-12981.59;;;-148.32;100.00
24390;BME280;12510;56.468;-3.004;2023-10-31T00:28:52;-12981.59;;;-148.32;100.00
24390;BME280;12510;56.468;-3.004;2023-10-31T00:31:19;-12981.59;;;-148.32;100.00
24390;BME280;12510;56.468;-3.004;2023-10-31T00:33:57;-12981.59;;;-148.32;100.00
24390;BME280;12510;56.468;-3.004;2023-10-31T00:36:23;-12981.59;;;-148.32;100.00
24390;BME280;12510;56.468;-3.004;2023-10-31T00:38:49;-12981.59;;;-148.32;100.00
24390;BME280;12510;56.468;-3.004;2023-10-31T00:41:15;-12981.59;;;-148.32;100.00
24390;BME280;12510;56.468;-3.004;2023-10-31T00:43:42;-12981.59;;;-148.32;100.00
24390;BME280;12510;56.468;-3.004;2023-10-31T00:46:08;-12981.59;;;-148.32;100.00
24390;BME280;12510;56.468;-3.004;2023-10-31T00:48:34;-12981.59;;;-148.32;100.00
24390;BME280;12510;56.468;-3.004;2023-10-31T00:51:02;-12981.59;;;-148.32;100.00
24390;BME280;12510;56.468;-3.004;2023-10-31T00:53:31;-12981.59;;;-148.32;100.00
24390;BME280;12510;56.468;-3.004;2023-10-31T00:55:57;-12981.59;;;-148.32;100.00
24390;BME280;12510;56.468;-3.004;2023-10-31T00:58:23;-12981.59;;;-148.32;100.00
24390;BME280;12510;56.468;-3.004;2023-10-31T01:00:49;-12981.59;;;-148.32;100.00
24390;BME280;12510;56.468;-3.004;2023-10-31T01:03:16;-12981.59;;;-148.32;100.00
24390;BME280;12510;56.468;-3.004;2023-10-31T01:05:42;-12981.59;;;-148.32;100.00
24390;BME280;12510;56.468;-3.004;2023-10-31T01:08:08;-12981.59;;;-148.32;100.00
24390;BME280;12510;56.468;-3.004;2023-10-31T01:10:34;-12981.59;;;-148.32;100.00
24390;BME280;12510;56.468;-3.004;2023-10-31T01:13:00;-12981.59;;;-148.32;100.00
24390;BME280;12510;56.468;-3.004;2023-10-31T01:15:27;-12981.59;;;-148.32;100.00
24390;BME280;12510;56.468;-3.004;2023-10-31T01:17:53;-12981.59;;;-148.32;100.00
24390;BME280;12510;56.468;-3.004;2023-10-31T01:20:19;-12981.59;;;-148.32;100.00
24390;BME280;12510;56.468;-3.004;2023-10-31T01:22:45;-12981.59;;;-148.32;100.00
24390;BME280;12510;56.468;-3.004;2023-10-31T01:25:11;-12981.59;;;-148.32;100.00
24390;BME280;12510;56.468;-3.004;2023-10-31T01:27:37;-12981.59;;;-148.32;100.00
24390;BME280;12510;56.468;-3.004;2023-10-31T01:30:04;-12981.59;;;-148.32;100.00
24390;BME280;12510;56.468;-3.004;2023-10-31T01:32:30;-12981.59;;;-148.32;100.00
24390;BME280;12510;56.468;-3.004;2023-10-31T01:34:57;-12981.59;;;-148.32;100.00
24390;BME280;12510;56.468;-3.004;2023-10-31T01:37:23;-12981.59;;;-148.32;100.00
24390;BME280;12510;56.468;-3.004;2023-10-31T01:39:49;-12981.59;;;-148.32;100.00
24390;BME280;12510;56.468;-3.004;2023-10-31T01:42:15;-12981.59;;;-148.32;100.00
24390;BME280;12510;56.468;-3.004;2023-10-31T01:44:41;-12981.59;;;-148.32;100.00
24390;BME280;12510;56.468;-3.004;2023-10-31T01:47:08;-12981.59;;;-148.32;100.00
24390;BME280;12510;56.468;-3.004;2023-10-31T01:49:35;-12981.59;;;-148.32;100.00
24390;BME280;12510;56.468;-3.004;2023-10-31T01:52:01;-12981.59;;;-148.32;100.00
24390;BME280;12510;56.468;-3.004;2023-10-31T01:54:30;-12981.59;;;-148.32;100.00
24390;BME280;12510;56.468;-3.004;2023-10-31T01:56:56;-12981.59;;;-148.32;100.00
24390;BME280;12510;56.468;-3.004;2023-10-31T01:59:27;-12981.59;;;-148.32;100.00
24390;BME280;12510;56.468;-3.004;2023-10-31T02:01:54;-12981.59;;;-148.32;100.00
24390;BME280;12510;56.468;-3.004;2023-10-31T02:04:21;-12981.59;;;-148.32;100.00
24390;BME280;12510;56.468;-3.004;2023-10-31T02:06:47;-12981.59;;;-148.32;100.00
24390;BME280;12510;56.468;-3.004;2023-10-31T02:09:13;-12981.59;;;-148.32;100.00
24390;BME280;12510;56.468;-3.004;2023-10-31T02:11:39;-12981.59;;;-148.32;100.00
24390;BME280;12510;56.468;-3.004;2023-10-31T02:14:06;-12981.59;;;-148.32;100.00
24390;BME280;12510;56.468;-3.004;2023-10-31T02:16:32;-12981.59;;;-148.32;100.00
24390;BME280;12510;56.468;-3.004;2023-10-31T02:18:58;-12981.59;;;-148.32;100.00
24390;BME280;12510;56.468;-3.004;2023-10-31T02:21:24;-12981.59;;;-148.32;100.00
24390;BME280;12510;56.468;-3.004;2023-10-31T02:23:58;-12981.59;;;-148.32;100.00
24390;BME280;12510;56.468;-3.004;2023-10-31T02:26:31;-12981.59;;;-148.32;100.00
24390;BME280;12510;56.468;-3.004;2023-10-31T02:28:58;-12981.59;;;-148.32;100.00
24390;BME280;12510;56.468;-3.004;2023-10-31T02:31:24;-12981.59;;;-148.32;100.00
24390;BME280;12510;56.468;-3.004;2023-10-31T02:33:51;-12981.59;;;-148.32;100.00
24390;BME280;12510;56.468;-3.004;2023-10-31T02:36:17;-12981.59;;;-148.32;100.00
24390;BME280;12510;56.468;-3.004;2023-10-31T02:38:44;-12981.59;;;-148.32;100.00
24390;BME280;12510;56.468;-3.004;2023-10-31T02:41:11;-12981.59;;;-148.32;100.00
24390;BME280;12510;56.468;-3.004;2023-10-31T02:43:38;-12981.59;;;-148.32;100.00
24390;BME280;12510;56.468;-3.004;2023-10-31T02:46:04;-12981.59;;;-148.32;100.00
24390;BME280;12510;56.468;-3.004;2023-10-31T02:48:30;-12981.59;;;-148.32;100.00
24390;BME280;12510;56.468;-3.004;2023-10-31T02:51:05;-12981.59;;;-148.32;100.00
24390;BME280;12510;56.468;-3.004;2023-10-31T02:53:33;-12981.59;;;-148.32;100.00
24390;BME280;12510;56.468;-3.004;2023-10-31T02:55:59;-12981.59;;;-148.32;100.00
24390;BME280;12510;56.468;-3.004;2023-10-31T02:58:25;-12981.59;;;-148.32;100.00
24390;BME280;12510;56.468;-3.004;2023-10-31T03:00:51;-12981.59;;;-148.32;100.00
24390;BME280;12510;56.468;-3.004;2023-10-31T03:03:18;-12981.59;;;-148.32;100.00
24390;BME280;12510;56.468;-3.004;2023-10-31T03:05:44;-12981.59;;;-148.32;100.00
24390;BME280;12510;56.468;-3.004;2023-10-31T03:08:10;-12981.59;;;-148.32;100.00
24390;BME280;12510;56.468;-3.004;2023-10-31T03:10:38;-12981.59;;;-148.32;100.00
24390;BME280;12510;56.468;-3.004;2023-10-31T03:13:04;-12981.59;;;-148.32;100.00
24390;BME280;12510;56.468;-3.004;2023-10-31T03:15:30;-12981.59;;;-148.32;100.00
24390;BME280;12510;56.468;-3.004;2023-10-31T03:17:57;-12981.59;;;-148.32;100.00
24390;BME280;12510;56.468;-3.004;2023-10-31T03:20:23;-12981.59;;;-148.32;100.00
24390;BME280;12510;56.468;-3.004;2023-10-31T03:22:49;-12981.59;;;-148.32;100.00
24390;BME280;12510;56.468;-3.004;2023-10-31T03:25:16;-12981.59;;;-148.32;100.00
24390;BME280;12510;56.468;-3.004;2023-10-31T03:27:42;-12981.59;;;-148.32;100.00
24390;BME280;12510;56.468;-3.004;2023-10-31T03:30:08;-12981.59;;;-148.32;100.00
24390;BME280;12510;56.468;-3.004;2023-10-31T03:32:35;-12981.59;;;-148.32;100.00
24390;BME280;12510;56.468;-3.004;2023-10-31T03:35:01;-12981.59;;;-148.32;100.00
24390;BME280;12510;56.468;-3.004;2023-10-31T03:37:27;-12981.59;;;-148.32;100.00
24390;BME280;12510;56.468;-3.004;2023-10-31T03:39:53;-12981.59;;;-148.32;100.00
24390;BME280;12510;56.468;-3.004;2023-10-31T03:42:19;-12981.59;;;-148.32;100.00
24390;BME280;12510;56.468;-3.004;2023-10-31T03:44:45;-12981.59;;;-148.32;100.00
24390;BME280;12510;56.468;-3.004;2023-10-31T03:47:13;-12981.59;;;-148.32;100.00
24390;BME280;12510;56.468;-3.004;2023-10-31T03:49:39;-12981.59;;;-148.32;100.00
24390;BME280;12510;56.468;-3.004;2023-10-31T03:52:06;-12981.59;;;-148.32;100.00
24390;BME280;12510;56.468;-3.004;2023-10-31T03:54:32;-12981.59;;;-148.32;100.00
24390;BME280;12510;56.468;-3.004;2023-10-31T03:57:00;-12981.59;;;-148.32;100.00
24390;BME280;12510;56.468;-3.004;2023-10-31T03:59:26;-12981.59;;;-148.32;100.00
24390;BME280;12510;56.468;-3.004;2023-10-31T04:01:52;-12981.59;;;-148.32;100.00
24390;BME280;12510;56.468;-3.004;2023-10-31T04:04:18;-12981.59;;;-148.32;100.00
24390;BME280;12510;56.468;-3.004;2023-10-31T04:06:44;-12981.59;;;-148.32;100.00
24390;BME280;12510;56.468;-3.004;2023-10-31T04:09:11;-12981.59;;;-148.32;100.00
24390;BME280;12510;56.468;-3.004;2023-10-31T04:11:37;-12981.59;;;-148.32;100.00
24390;BME280;12510;56.468;-3.004;2023-10-31T04:14:04;-12981.59;;;-148.32;100.00
24390;BME280;12510;56.468;-3.004;2023-10-31T04:16:30;-12981.59;;;-148.32;100.00
24390;BME280;12510;56.468;-3.004;2023-10-31T04:18:56;-12981.59;;;-148.32;100.00
24390;BME280;12510;56.468;-3.004;2023-10-31T04:21:22;-12981.59;;;-148.32;100.00
24390;BME280;12510;56.468;-3.004;2023-10-31T04:23:48;-12981.59;;;-148.32;100.00
24390;BME280;12510;56.468;-3.004;2023-10-31T04:26:14;-12981.59;;;-148.32;100.00
24390;BME280;12510;56.468;-3.004;2023-10-31T04:28:41;-12981.59;;;-148.32;100.00
24390;BME280;12510;56.468;-3.004;2023-10-31T04:31:08;-12981.59;;;-148.32;100.00
24390;BME280;12510;56.468;-3.004;2023-10-31T04:33:34;-12981.59;;;-148.32;100.00
24390;BME280;12510;56.468;-3.004;2023-10-31T04:36:00;-12981.59;;;-148.32;100.00
24390;BME280;12510;56.468;-3.004;2023-10-31T04:38:28;-12981.59;;;-148.32;100.00
24390;BME280;12510;56.468;-3.004;2023-10-31T04:40:54;-12981.59;;;-148.32;100.00
24390;BME280;12510;56.468;-3.004;2023-10-31T04:43:20;-12981.59;;;-148.32;100.00
24390;BME280;12510;56.468;-3.004;2023-10-31T04:45:46;-12981.59;;;-148.32;100.00
24390;BME280;12510;56.468;-3.004;2023-10-31T04:48:13;-12981.59;;;-148.32;100.00
24390;BME280;12510;56.468;-3.004;2023-10-31T04:50:39;-12981.59;;;-148.32;100.00
24390;BME280;12510;56.468;-3.004;2023-10-31T04:53:05;-12981.59;;;-148.32;100.00
24390;BME280;12510;56.468;-3.004;2023-10-31T04:55:31;-12981.59;;;-148.32;100.00
24390;BME280;12510;56.468;-3.004;2023-10-31T04:57:57;-12981.59;;;-148.32;100.00
24390;BME280;12510;56.468;-3.004;2023-10-31T05:00:23;-12981.59;;;-148.32;100.00
24390;BME280;12510;56.468;-3.004;2023-10-31T05:02:50;-12981.59;;;-148.32;100.00
24390;BME280;12510;56.468;-3.004;2023-10-31T05:05:16;-12981.59;;;-148.32;100.00
24390;BME280;12510;56.468;-3.004;2023-10-31T05:07:42;-12981.59;;;-148.32;100.00
24390;BME280;12510;56.468;-3.004;2023-10-31T05:10:09;-12981.59;;;-148.32;100.00
24390;BME280;12510;56.468;-3.004;2023-10-31T05:12:35;-12981.59;;;-148.32;100.00
24390;BME280;12510;56.468;-3.004;2023-10-31T05:15:02;-12981.59;;;-148.32;100.00
24390;BME280;12510;56.468;-3.004;2023-10-31T05:17:28;-12981.59;;;-148.32;100.00
24390;BME280;12510;56.468;-3.004;2023-10-31T05:19:54;-12981.59;;;-148.32;100.00
24390;BME280;12510;56.468;-3.004;2023-10-31T05:22:20;-12981.59;;;-148.32;100.00
24390;BME280;12510;56.468;-3.004;2023-10-31T05:24:47;-12981.59;;;-148.32;100.00
24390;BME280;12510;56.468;-3.004;2023-10-31T05:27:13;-12981.59;;;-148.32;100.00
24390;BME280;12510;56.468;-3.004;2023-10-31T05:29:39;-12981.59;;;-148.32;100.00
24390;BME280;12510;56.468;-3.004;2023-10-31T05:32:05;-12981.59;;;-148.32;100.00
24390;BME280;12510;56.468;-3.004;2023-10-31T05:34:31;-12981.59;;;-148.32;100.00
24390;BME280;12510;56.468;-3.004;2023-10-31T05:36:57;-12981.59;;;-148.32;100.00
24390;BME280;12510;56.468;-3.004;2023-10-31T05:39:24;-12981.59;;;-148.32;100.00
24390;BME280;12510;56.468;-3.004;2023-10-31T05:41:50;-12981.59;;;-148.32;100.00
24390;BME280;12510;56.468;-3.004;2023-10-31T05:44:16;-12981.59;;;-148.32;100.00
24390;BME280;12510;56.468;-3.004;2023-10-31T05:49:59;-12981.59;;;-148.32;100.00
24390;BME280;12510;56.468;-3.004;2023-10-31T05:52:29;-12981.59;;;-148.32;100.00
24390;BME280;12510;56.468;-3.004;2023-10-31T05:54:58;-12981.59;;;-148.32;100.00
24390;BME280;12510;56.468;-3.004;2023-10-31T05:57:24;-12981.59;;;-148.32;100.00
24390;BME280;12510;56.468;-3.004;2023-10-31T05:59:50;-12981.59;;;-148.32;100.00
24390;BME280;12510;56.468;-3.004;2023-10-31T06:02:16;-12981.59;;;-148.32;100.00
24390;BME280;12510;56.468;-3.004;2023-10-31T06:04:42;-12981.59;;;-148.32;100.00
24390;BME280;12510;56.468;-3.004;2023-10-31T06:07:10;-12981.59;;;-148.32;100.00
24390;BME280;12510;56.468;-3.004;2023-10-31T06:09:36;-12981.59;;;-148.32;100.00
24390;BME280;12510;56.468;-3.004;2023-10-31T06:12:02;-12981.59;;;-148.32;100.00
24390;BME280;12510;56.468;-3.004;2023-10-31T06:14:29;-12981.59;;;-148.32;100.00
24390;BME280;12510;56.468;-3.004;2023-10-31T06:16:56;-12981.59;;;-148.32;100.00
24390;BME280;12510;56.468;-3.004;2023-10-31T06:19:25;-12981.59;;;-148.32;100.00
24390;BME280;12510;56.468;-3.004;2023-10-31T06:21:51;-12981.59;;;-148.32;100.00
24390;BME280;12510;56.468;-3.004;2023-10-31T06:24:17;-12981.59;;;-148.32;100.00
24390;BME280;12510;56.468;-3.004;2023-10-31T06:26:43;-12981.59;;;-148.32;100.00
24390;BME280;12510;56.468;-3.004;2023-10-31T06:29:09;-12981.59;;;-148.32;100.00
24390;BME280;12510;56.468;-3.004;2023-10-31T06:31:35;-12981.59;;;-148.32;100.00
24390;BME280;12510;56.468;-3.004;2023-10-31T06:34:02;-12981.59;;;-148.32;100.00
24390;BME280;12510;56.468;-3.004;2023-10-31T06:36:28;-12981.59;;;-148.32;100.00
24390;BME280;12510;56.468;-3.004;2023-10-31T06:38:54;-12981.59;;;-148.32;100.00
24390;BME280;12510;56.468;-3.004;2023-10-31T06:41:22;-12981.59;;;-148.32;100.00
24390;BME280;12510;56.468;-3.004;2023-10-31T06:43:48;-12981.59;;;-148.32;100.00
24390;BME280;12510;56.468;-3.004;2023-10-31T06:46:14;-12981.59;;;-148.32;100.00
24390;BME280;12510;56.468;-3.004;2023-10-31T06:48:41;-12981.59;;;-148.32;100.00
24390;BME280;12510;56.468;-3.004;2023-10-31T06:51:07;-12981.59;;;-148.32;100.00
24390;BME280;12510;56.468;-3.004;2023-10-31T06:53:33;-12981.59;;;-148.32;100.00
24390;BME280;12510;56.468;-3.004;2023-10-31T06:55:59;-12981.59;;;-148.32;100.00
24390;BME280;12510;56.468;-3.004;2023-10-31T06:58:26;-12981.59;;;-148.32;100.00
24390;BME280;12510;56.468;-3.004;2023-10-31T07:00:52;-12981.59;;;-148.32;100.00
24390;BME280;12510;56.468;-3.004;2023-10-31T07:03:18;-12981.59;;;-148.32;100.00
24390;BME280;12510;56.468;-3.004;2023-10-31T07:05:44;-12981.59;;;-148.32;100.00
24390;BME280;12510;56.468;-3.004;2023-10-31T07:08:10;-12981.59;;;-148.32;100.00
24390;BME280;12510;56.468;-3.004;2023-10-31T07:10:36;-12981.59;;;-148.32;100.00
24390;BME280;12510;56.468;-3.004;2023-10-31T07:13:03;-12981.59;;;-148.32;100.00
24390;BME280;12510;56.468;-3.004;2023-10-31T07:15:29;-12981.59;;;-148.32;100.00
24390;BME280;12510;56.468;-3.004;2023-10-31T07:17:55;-12981.59;;;-148.32;100.00
24390;BME280;12510;56.468;-3.004;2023-10-31T07:20:21;-12981.59;;;-148.32;100.00
24390;BME280;12510;56.468;-3.004;2023-10-31T07:22:47;-12981.59;;;-148.32;100.00
24390;BME280;12510;56.468;-3.004;2023-10-31T07:25:13;-12981.59;;;-148.32;100.00
24390;BME280;12510;56.468;-3.004;2023-10-31T07:27:39;-12981.59;;;-148.32;100.00
24390;BME280;12510;56.468;-3.004;2023-10-31T07:30:06;-12981.59;;;-148.32;100.00
24390;BME280;12510;56.468;-3.004;2023-10-31T07:32:32;-12981.59;;;-148.32;100.00
24390;BME280;12510;56.468;-3.004;2023-10-31T07:34:58;-12981.59;;;-148.32;100.00
24390;BME280;12510;56.468;-3.004;2023-10-31T07:37:24;-12981.59;;;-148.32;100.00
24390;BME280;12510;56.468;-3.004;2023-10-31T07:39:50;-12981.59;;;-148.32;100.00
24390;BME280;12510;56.468;-3.004;2023-10-31T07:42:17;-12981.59;;;-148.32;100.00
24390;BME280;12510;56.468;-3.004;2023-10-31T07:44:43;-12981.59;;;-148.32;100.00
24390;BME280;12510;56.468;-3.004;2023-10-31T07:47:09;-12981.59;;;-148.32;100.00
24390;BME280;12510;56.468;-3.004;2023-10-31T07:49:35;-12981.59;;;-148.32;100.00
24390;BME280;12510;56.468;-3.004;2023-10-31T07:52:01;-12981.59;;;-148.32;100.00
24390;BME280;12510;56.468;-3.004;2023-10-31T07:54:27;-12981.59;;;-148.32;100.00
24390;BME280;12510;56.468;-3.004;2023-10-31T07:56:54;-12981.59;;;-148.32;100.00
24390;BME280;12510;56.468;-3.004;2023-10-31T07:59:20;-12981.59;;;-148.32;100.00
24390;BME280;12510;56.468;-3.004;2023-10-31T08:01:46;-12981.59;;;-148.32;100.00
24390;BME280;12510;56.468;-3.004;2023-10-31T08:04:14;-12981.59;;;-148.32;100.00
24390;BME280;12510;56.468;-3.004;2023-10-31T08:06:42;-12981.59;;;-148.32;100.00
24390;BME280;12510;56.468;-3.004;2023-10-31T08:09:08;-12981.59;;;-148.32;100.00
24390;BME280;12510;56.468;-3.004;2023-10-31T08:11:34;-12981.59;;;-148.32;100.00
24390;BME280;12510;56.468;-3.004;2023-10-31T08:14:01;-12981.59;;;-148.32;100.00
24390;BME280;12510;56.468;-3.004;2023-10-31T08:16:28;-12981.59;;;-148.32;100.00
24390;BME280;12510;56.468;-3.004;2023-10-31T08:18:54;-12729.53;;;-148.32;100.00
24390;BME280;12510;56.468;-3.004;2023-10-31T08:21:20;-12981.59;;;-148.32;100.00
24390;BME280;12510;56.468;-3.004;2023-10-31T08:23:46;-12981.59;;;-148.32;100.00
24390;BME280;12510;56.468;-3.004;2023-10-31T08:26:12;-12981.59;;;-148.32;100.00
24390;BME280;12510;56.468;-3.004;2023-10-31T08:28:39;-12981.59;;;-148.32;100.00
24390;BME280;12510;56.468;-3.004;2023-10-31T08:31:05;-12981.59;;;-148.32;100.00
24390;BME280;12510;56.468;-3.004;2023-10-31T08:33:31;-12981.59;;;-148.32;100.00
24390;BME280;12510;56.468;-3.004;2023-10-31T08:35:58;-11225.56;;;-148.32;100.00
24390;BME280;12510;56.468;-3.004;2023-10-31T08:38:24;-12981.59;;;-148.32;100.00
24390;BME280;12510;56.468;-3.004;2023-10-31T08:40:50;-11726.97;;;-148.32;100.00
24390;BME280;12510;56.468;-3.004;2023-10-31T08:43:16;-10974.88;;;-148.32;100.00
24390;BME280;12510;56.468;-3.004;2023-10-31T08:45:43;-11225.56;;;-148.32;100.00
24390;BME280;12510;56.468;-3.004;2023-10-31T08:48:09;-12980.13;;;-148.32;100.00
24390;BME280;12510;56.468;-3.004;2023-10-31T08:50:35;-12478.91;;;-148.32;100.00
24390;BME280;12510;56.468;-3.004;2023-10-31T08:53:01;-11726.97;;;-148.32;100.00
24390;BME280;12510;56.468;-3.004;2023-10-31T08:55:27;-12980.13;;;-148.32;100.00
24390;BME280;12510;56.468;-3.004;2023-10-31T08:57:53;-12729.53;;;-148.32;100.00
24390;BME280;12510;56.468;-3.004;2023-10-31T09:00:19;-12981.59;;;-148.32;100.00
24390;BME280;12510;56.468;-3.004;2023-10-31T09:02:46;-12981.59;;;-148.32;100.00
24390;BME280;12510;56.468;-3.004;2023-10-31T09:05:12;-11726.97;;;-148.32;100.00
24390;BME280;12510;56.468;-3.004;2023-10-31T09:07:38;-12981.59;;;-148.32;100.00
24390;BME280;12510;56.468;-3.004;2023-10-31T09:10:04;36454.94;;;-148.32;100.00
24390;BME280;12510;56.468;-3.004;2023-10-31T09:12:31;44783.91;;;-148.32;100.00
24390;BME280;12510;56.468;-3.004;2023-10-31T09:14:57;50465.06;;;-148.32;100.00
24390;BME280;12510;56.468;-3.004;2023-10-31T09:17:24;49643.31;;;-148.32;100.00
24390;BME280;12510;56.468;-3.004;2023-10-31T09:19:50;49078.31;;;-148.32;100.00
24390;BME280;12510;56.468;-3.004;2023-10-31T09:22:16;51312.88;;;-148.32;100.00
24390;BME280;12510;56.468;-3.004;2023-10-31T09:24:42;49706.97;;;-148.32;100.00
24390;BME280;12510;56.468;-3.004;2023-10-31T09:27:09;50634.22;;;-148.32;100.00
24390;BME280;12510;56.468;-3.004;2023-10-31T09:29:35;49981.53;;;-148.32;100.00
24390;BME280;12510;56.468;-3.004;2023-10-31T09:32:02;50835.22;;;-148.32;100.00
24390;BME280;12510;56.468;-3.004;2023-10-31T09:34:29;46274.50;;;-148.32;100.00
24390;BME280;12510;56.468;-3.004;2023-10-31T09:36:55;44853.44;;;-148.32;100.00
24390;BME280;12510;56.468;-3.004;2023-10-31T09:39:22;47475.31;;;-148.32;100.00
24390;BME280;12510;56.468;-3.004;2023-10-31T09:41:51;51979.69;;;-148.32;100.00
24390;BME280;12510;56.468;-3.004;2023-10-31T09:44:17;52473.41;;;-148.32;100.00
24390;BME280;12510;56.468;-3.004;2023-10-31T09:46:43;52318.13;;;-148.32;100.00
24390;BME280;12510;56.468;-3.004;2023-10-31T09:49:10;52666.53;;;-148.32;100.00
24390;BME280;12510;56.468;-3.004;2023-10-31T09:51:37;52672.50;;;-148.32;100.00
24390;BME280;12510;56.468;-3.004;2023-10-31T09:54:04;52632.69;;;-148.32;100.00
24390;BME280;12510;56.468;-3.004;2023-10-31T09:56:32;52732.25;;;-148.32;100.00
24390;BME280;12510;56.468;-3.004;2023-10-31T09:59:00;52505.28;;;-148.32;100.00
24390;BME280;12510;56.468;-3.004;2023-10-31T10:01:27;52752.16;;;-148.32;100.00
24390;BME280;12510;56.468;-3.004;2023-10-31T10:03:53;52752.16;;;-148.32;100.00
24390;BME280;12510;56.468;-3.004;2023-10-31T10:06:21;52736.22;;;-148.32;100.00
24390;BME280;12510;56.468;-3.004;2023-10-31T10:08:49;52752.16;;;-148.32;100.00
24390;BME280;12510;56.468;-3.004;2023-10-31T10:11:15;52891.53;;;-148.32;100.00
24390;BME280;12510;56.468;-3.004;2023-10-31T10:13:42;52901.50;;;-148.32;100.00
24390;BME280;12510;56.468;-3.004;2023-10-31T10:16:09;52788.00;;;-148.32;100.00
24390;BME280;12510;56.468;-3.004;2023-10-31T10:18:35;52847.72;;;-148.32;100.00
24390;BME280;12510;56.468;-3.004;2023-10-31T10:21:05;52859.69;;;-148.32;100.00
24390;BME280;12510;56.468;-3.004;2023-10-31T10:23:32;52837.78;;;-148.32;100.00
24390;BME280;12510;56.468;-3.004;2023-10-31T10:25:59;52803.94;;;-148.32;100.00
24390;BME280;12510;56.468;-3.004;2023-10-31T10:28:26;52827.81;;;-148.32;100.00
24390;BME280;12510;56.468;-3.004;2023-10-31T10:30:53;52887.56;;;-148.32;100.00
24390;BME280;12510;56.468;-3.004;2023-10-31T10:33:22;52871.63;;;-148.32;100.00
24390;BME280;12510;56.468;-3.004;2023-10-31T10:35:48;52644.66;;;-148.32;100.00
24390;BME280;12510;56.468;-3.004;2023-10-31T10:38:15;52712.34;;;-148.32;100.00
24390;BME280;12510;56.468;-3.004;2023-10-31T10:40:43;52676.50;;;-148.32;100.00
24390;BME280;12510;56.468;-3.004;2023-10-31T10:45:42;52772.06;;;-148.32;100.00
24390;BME280;12510;56.468;-3.004;2023-10-31T10:48:13;52732.25;;;-148.32;100.00
24390;BME280;12510;56.468;-3.004;2023-10-31T10:50:42;52696.41;;;-148.32;100.00
24390;BME280;12510;56.468;-3.004;2023-10-31T10:53:24;52706.38;;;-148.32;100.00
24390;BME280;12510;56.468;-3.004;2023-10-31T10:55:57;52467.44;;;-148.32;100.00
24390;BME280;12510;56.468;-3.004;2023-10-31T10:58:27;52732.25;;;-148.32;100.00
24390;BME280;12510;56.468;-3.004;2023-10-31T11:00:59;52819.84;;;-148.32;100.00
24390;BME280;12510;56.468;-3.004;2023-10-31T11:03:26;52744.19;;;-148.32;100.00
24390;BME280;12510;56.468;-3.004;2023-10-31T11:05:53;52811.88;;;-148.32;100.00
24390;BME280;12510;56.468;-3.004;2023-10-31T11:08:20;52764.09;;;-148.32;100.00
24390;BME280;12510;56.468;-3.004;2023-10-31T11:10:47;52859.69;;;-148.32;100.00
24390;BME280;12510;56.468;-3.004;2023-10-31T11:13:14;52797.94;;;-148.32;100.00
24390;BME280;12510;56.468;-3.004;2023-10-31T11:15:40;52608.81;;;-148.32;100.00
24390;BME280;12510;56.468;-3.004;2023-10-31T11:18:07;52604.81;;;-148.32;100.00
24390;BME280;12510;56.468;-3.004;2023-10-31T11:20:34;52584.91;;;-148.32;100.00
24390;BME280;12510;56.468;-3.004;2023-10-31T11:23:00;52720.31;;;-148.32;100.00
24390;BME280;12510;56.468;-3.004;2023-10-31T11:28:47;52760.13;;;-148.32;100.00
24390;BME280;12510;56.468;-3.004;2023-10-31T11:31:13;52668.53;;;-148.32;100.00
24390;BME280;12510;56.468;-3.004;2023-10-31T11:33:40;52656.59;;;-148.32;100.00
24390;BME280;12510;56.468;-3.004;2023-10-31T11:36:08;52578.94;;;-148.32;100.00
24390;BME280;12510;56.468;-3.004;2023-10-31T11:38:37;52720.31;;;-148.32;100.00
24390;BME280;12510;56.468;-3.004;2023-10-31T11:41:04;52634.69;;;-148.32;100.00
24390;BME280;12510;56.468;-3.004;2023-10-31T11:43:50;52674.50;;;-148.32;100.00
24390;BME280;12510;56.468;-3.004;2023-10-31T11:46:23;52740.22;;;-148.32;100.00
24390;BME280;12510;56.468;-3.004;2023-10-31T11:48:55;52791.97;;;-148.32;100.00
24390;BME280;12510;56.468;-3.004;2023-10-31T11:51:26;52807.91;;;-148.32;100.00
24390;BME280;12510;56.468;-3.004;2023-10-31T11:53:52;52811.88;;;-148.32;100.00
24390;BME280;12510;56.468;-3.004;2023-10-31T11:56:19;52766.09;;;-148.32;100.00
24390;BME280;12510;56.468;-3.004;2023-10-31T11:58:54;52752.16;;;-148.32;100.00
24390;BME280;12510;56.468;-3.004;2023-10-31T12:01:20;52863.66;;;-148.32;100.00
24390;BME280;12510;56.468;-3.004;2023-10-31T12:03:46;52827.81;;;-148.32;100.00
24390;BME280;12510;56.468;-3.004;2023-10-31T12:06:16;52805.91;;;-148.32;100.00
24390;BME280;12510;56.468;-3.004;2023-10-31T12:08:43;52815.88;;;-148.32;100.00
24390;BME280;12510;56.468;-3.004;2023-10-31T12:11:13;52815.88;;;-148.32;100.00
24390;BME280;12510;56.468;-3.004;2023-10-31T12:13:42;52776.06;;;-148.32;100.00
24390;BME280;12510;56.468;-3.004;2023-10-31T12:16:09;52772.06;;;-148.32;100.00
24390;BME280;12510;56.468;-3.004;2023-10-31T12:21:53;52905.47;;;-148.32;100.00
24390;BME280;12510;56.468;-3.004;2023-10-31T12:24:20;52857.69;;;-148.32;100.00